Terminal Aerodrome Forecast
Issued by NWS Grand Junction, CO

Home | Current Version | Previous Version | Text Only | Print | Product List | Glossary On
Versions: 1 2 3 4 5 6 7 8 9 10 11 12 13 14 15 16 17 18 19 20 21 22 23 24
960
FTUS45 KGJT 240521
TAFGJT
TAF
KGJT 240521Z 2406/2506 11005KT P6SM FEW250
     FM242000 31010KT P6SM FEW250
     FM250200 02005KT P6SM SKC=

USA.gov is the U.S. government's official web portal to all federal, state and local government web resources and services.